createdAt,value
2023-04-17T00:00:51.377Z,15.50
2023-04-17T00:03:21.926Z,14.90
2023-04-17T00:05:50.245Z,15.00
2023-04-17T00:08:17.722Z,14.60
2023-04-17T00:10:51.113Z,14.70
2023-04-17T00:13:24.625Z,15.60
2023-04-17T00:16:37.840Z,15.50
2023-04-17T00:19:25.271Z,14.90
2023-04-17T00:21:52.253Z,13.80
2023-04-17T00:24:19.558Z,14.00
2023-04-17T00:26:51.183Z,14.00
2023-04-17T00:29:41.862Z,14.20
2023-04-17T00:33:26.364Z,13.90
2023-04-17T00:36:36.730Z,13.60
2023-04-17T00:40:10.857Z,14.30
2023-04-17T00:43:51.140Z,14.10
2023-04-17T00:46:48.877Z,13.80
2023-04-17T00:50:34.469Z,13.30
2023-04-17T00:54:36.548Z,13.40
2023-04-17T00:57:26.851Z,13.80
2023-04-17T01:00:36.482Z,14.10
2023-04-17T01:04:04.838Z,13.80
2023-04-17T04:31:43.055Z,23.20
2023-04-17T04:39:20.875Z,21.10
2023-04-17T06:32:47.021Z,22.80
2023-04-17T06:54:00.188Z,22.00
2023-04-17T07:23:10.942Z,24.40
2023-04-17T07:25:58.288Z,23.10
2023-04-17T09:13:08.739Z,16.20
2023-04-17T09:33:47.629Z,13.80
2023-04-17T09:37:01.829Z,13.40
2023-04-17T14:03:28.890Z,19.50
2023-04-17T14:06:05.581Z,19.70
2023-04-17T14:08:34.720Z,19.20
2023-04-17T16:29:27.947Z,11.10
2023-04-17T17:16:42.969Z,13.70
2023-04-17T19:42:22.481Z,17.30
2023-04-17T19:45:48.495Z,16.80
2023-04-17T19:49:20.839Z,17.30
2023-04-17T19:52:47.395Z,14.30
2023-04-17T19:56:10.425Z,14.80
2023-04-17T20:03:08.502Z,14.10
2023-04-17T20:06:17.368Z,13.50
2023-04-17T20:09:40.322Z,13.00
2023-04-17T20:13:07.393Z,13.20
2023-04-17T20:16:35.848Z,13.20
